createdAt,value
2022-11-25T00:01:34.153Z,8.01
2022-11-25T00:04:00.860Z,8.01
2022-11-25T00:06:32.122Z,8.03
2022-11-25T00:09:10.812Z,8.01
2022-11-25T00:11:39.615Z,8.04
2022-11-25T00:14:07.509Z,8.05
2022-11-25T00:16:34.424Z,8.07
2022-11-25T00:19:01.089Z,8.07
2022-11-25T00:21:31.625Z,8.08
2022-11-25T00:24:01.162Z,8.08
2022-11-25T00:26:29.605Z,8.05
2022-11-25T00:28:59.389Z,8.02
2022-11-25T00:31:28.750Z,8.02
2022-11-25T00:33:55.733Z,7.98
2022-11-25T00:36:29.245Z,7.94
2022-11-25T00:39:02.400Z,7.92
2022-11-25T00:41:47.707Z,7.94
2022-11-25T00:44:35.500Z,7.91
2022-11-25T00:47:04.008Z,7.89
2022-11-25T00:49:31.277Z,7.89
2022-11-25T00:51:58.273Z,7.90
2022-11-25T00:54:24.912Z,7.91
2022-11-25T00:56:52.179Z,7.95
2022-11-25T00:59:19.414Z,7.93
2022-11-25T01:01:46.484Z,7.92
2022-11-25T01:04:13.169Z,7.90
2022-11-25T01:06:39.736Z,7.89
2022-11-25T01:09:07.023Z,7.89
2022-11-25T01:11:33.775Z,7.86
2022-11-25T01:14:01.726Z,7.85
2022-11-25T01:16:29.464Z,7.85
2022-11-25T01:18:56.213Z,7.85
2022-11-25T01:21:31.206Z,7.83
2022-11-25T01:24:00.636Z,7.80
2022-11-25T01:26:27.769Z,7.80
2022-11-25T01:29:00.045Z,7.79
2022-11-25T01:31:29.964Z,7.79
2022-11-25T01:34:02.197Z,7.77
2022-11-25T01:36:29.374Z,7.76
2022-11-25T01:38:58.067Z,7.75
2022-11-25T01:41:27.068Z,7.75
2022-11-25T01:44:14.049Z,7.70
2022-11-25T01:47:05.194Z,7.69
2022-11-25T01:49:31.686Z,7.69
2022-11-25T01:52:07.126Z,7.68
2022-11-25T01:54:40.571Z,7.64
2022-11-25T01:57:13.870Z,7.61
2022-11-25T01:59:46.393Z,7.59
2022-11-25T02:02:14.831Z,7.55
2022-11-25T02:04:43.411Z,7.50
2022-11-25T02:07:28.498Z,7.48
2022-11-25T02:09:56.226Z,7.45
2022-11-25T02:12:23.045Z,7.41
2022-11-25T02:14:51.845Z,7.36
2022-11-25T02:17:18.491Z,7.33
2022-11-25T02:20:00.045Z,7.28
2022-11-25T02:22:46.754Z,7.22
2022-11-25T02:25:14.831Z,7.23
2022-11-25T02:27:44.702Z,7.21
2022-11-25T02:30:11.583Z,7.18
2022-11-25T02:32:44.154Z,7.17
2022-11-25T02:35:25.627Z,7.12
2022-11-25T02:37:55.397Z,7.13
2022-11-25T02:40:23.693Z,7.13
2022-11-25T02:42:51.210Z,7.10
2022-11-25T02:45:24.821Z,7.10
2022-11-25T02:47:51.499Z,7.10
2022-11-25T02:50:18.104Z,7.09
2022-11-25T02:52:45.291Z,7.09
2022-11-25T02:55:11.796Z,7.08
2022-11-25T02:57:38.316Z,7.07
2022-11-25T03:00:05.663Z,7.09
2022-11-25T03:02:32.397Z,7.14
2022-11-25T03:04:58.980Z,7.17
2022-11-25T03:07:25.605Z,7.22
2022-11-25T03:09:52.776Z,7.27
2022-11-25T03:12:19.274Z,7.30
2022-11-25T03:14:46.100Z,7.32
2022-11-25T03:17:12.632Z,7.35
2022-11-25T03:19:39.440Z,7.40
2022-11-25T03:22:07.092Z,7.40
2022-11-25T03:24:33.865Z,7.39
2022-11-25T03:27:00.669Z,7.41
2022-11-25T03:29:27.215Z,7.40
2022-11-25T03:31:53.764Z,7.40
2022-11-25T03:34:20.296Z,7.39
2022-11-25T03:36:46.857Z,7.41
2022-11-25T03:39:13.356Z,7.43
2022-11-25T03:41:39.870Z,7.45
2022-11-25T03:44:06.413Z,7.50
2022-11-25T03:46:33.143Z,7.54
2022-11-25T03:48:59.687Z,7.59
2022-11-25T03:51:26.198Z,7.65
2022-11-25T03:53:52.850Z,7.68
2022-11-25T03:56:19.364Z,7.74
2022-11-25T03:58:45.915Z,7.77
2022-11-25T04:01:12.498Z,7.81
2022-11-25T04:03:39.045Z,7.88
2022-11-25T04:06:05.629Z,7.93
2022-11-25T04:08:32.212Z,7.99
2022-11-25T04:10:58.787Z,8.06
2022-11-25T04:13:25.429Z,8.13
2022-11-25T04:15:52.097Z,8.19
2022-11-25T04:18:19.401Z,8.22
2022-11-25T04:20:46.707Z,8.29
2022-11-25T04:23:14.220Z,8.57
2022-11-25T04:25:40.795Z,8.79
2022-11-25T04:28:07.317Z,8.96
2022-11-25T04:30:34.234Z,9.08
2022-11-25T04:33:01.853Z,9.18
2022-11-25T04:35:28.435Z,9.23
2022-11-25T04:37:54.988Z,9.27
2022-11-25T04:40:21.595Z,9.31
2022-11-25T04:42:48.126Z,9.34
2022-11-25T04:45:24.869Z,9.35
2022-11-25T04:47:52.000Z,9.37
2022-11-25T04:50:20.928Z,9.39
2022-11-25T04:52:47.588Z,9.42
2022-11-25T04:55:14.224Z,9.43
2022-11-25T04:57:40.915Z,9.45
2022-11-25T05:00:09.577Z,9.47
2022-11-25T05:02:36.818Z,9.49
2022-11-25T05:05:04.245Z,9.48
2022-11-25T05:07:30.903Z,9.49
2022-11-25T05:09:57.974Z,9.50
2022-11-25T05:12:26.809Z,9.50
2022-11-25T05:14:53.461Z,9.47
2022-11-25T05:17:23.552Z,9.42
2022-11-25T05:19:50.593Z,9.40
2022-11-25T05:22:22.964Z,9.38
2022-11-25T05:24:49.597Z,9.34
2022-11-25T05:27:16.883Z,9.34
2022-11-25T05:29:43.895Z,9.32
2022-11-25T05:32:11.034Z,9.34
2022-11-25T05:34:38.159Z,9.32
2022-11-25T05:37:05.373Z,9.28
2022-11-25T05:39:31.976Z,9.28
2022-11-25T05:41:58.624Z,9.27
2022-11-25T05:44:25.805Z,9.28
2022-11-25T05:46:52.776Z,9.30
2022-11-25T05:49:19.586Z,9.32
2022-11-25T05:51:46.809Z,9.34
2022-11-25T05:54:14.404Z,9.39
2022-11-25T05:56:40.967Z,9.41
2022-11-25T05:59:07.517Z,9.57
2022-11-25T06:01:34.451Z,10.00
2022-11-25T06:04:02.229Z,10.47
2022-11-25T06:06:29.027Z,10.91
2022-11-25T06:08:56.090Z,11.28
2022-11-25T06:11:23.123Z,11.57
2022-11-25T06:13:49.698Z,11.77
2022-11-25T06:16:18.971Z,11.75
2022-11-25T06:18:45.566Z,11.56
2022-11-25T06:21:12.807Z,11.42
2022-11-25T06:23:39.802Z,11.41
2022-11-25T06:26:09.931Z,11.28
2022-11-25T06:28:36.906Z,11.14
2022-11-25T06:31:10.107Z,11.16
2022-11-25T06:33:37.169Z,11.34
2022-11-25T06:36:06.247Z,11.35
2022-11-25T06:38:32.923Z,11.29
2022-11-25T06:41:01.325Z,11.17
2022-11-25T06:43:27.934Z,10.96
2022-11-25T06:45:54.544Z,10.79
2022-11-25T06:48:21.124Z,10.81
2022-11-25T06:50:56.759Z,10.86
2022-11-25T06:53:24.343Z,10.92
2022-11-25T06:56:05.291Z,10.99
2022-11-25T06:58:36.435Z,11.11
2022-11-25T07:01:05.120Z,11.24
2022-11-25T07:03:31.854Z,11.21
2022-11-25T07:05:59.738Z,11.27
2022-11-25T07:08:30.902Z,11.17
2022-11-25T07:11:10.246Z,11.18
2022-11-25T07:13:36.906Z,11.03
2022-11-25T07:16:05.912Z,10.83
2022-11-25T07:18:36.590Z,10.64
2022-11-25T07:21:08.852Z,10.53
2022-11-25T07:23:36.312Z,10.40
2022-11-25T07:26:11.354Z,10.38
2022-11-25T07:28:38.934Z,10.44
2022-11-25T07:31:23.675Z,10.54
2022-11-25T07:33:56.447Z,10.47
2022-11-25T07:36:23.383Z,10.45
2022-11-25T07:38:50.239Z,10.47
2022-11-25T07:41:20.190Z,10.59
2022-11-25T07:43:48.956Z,11.01
2022-11-25T07:46:25.030Z,11.39
2022-11-25T07:48:57.959Z,11.73
2022-11-25T07:51:33.084Z,12.07
2022-11-25T07:54:02.045Z,12.29
2022-11-25T07:56:29.538Z,12.40
2022-11-25T07:58:57.111Z,12.41
2022-11-25T08:01:24.279Z,12.24
2022-11-25T08:03:51.776Z,12.18
2022-11-25T08:06:21.464Z,12.15
2022-11-25T08:08:48.988Z,12.11
2022-11-25T08:11:21.098Z,12.11
2022-11-25T08:13:47.978Z,11.89
2022-11-25T08:16:16.117Z,11.90
2022-11-25T08:18:43.008Z,12.07
2022-11-25T08:21:11.791Z,12.22
2022-11-25T08:23:40.030Z,12.28
2022-11-25T08:26:09.820Z,12.06
2022-11-25T08:28:37.248Z,11.81
2022-11-25T08:31:16.245Z,11.47
2022-11-25T08:33:43.852Z,11.33
2022-11-25T08:36:11.278Z,11.36
2022-11-25T08:38:38.028Z,11.22
2022-11-25T08:41:12.843Z,11.04
2022-11-25T08:43:39.901Z,10.87
2022-11-25T08:46:15.370Z,10.68
2022-11-25T08:48:42.378Z,10.63
2022-11-25T08:51:15.024Z,10.59
2022-11-25T08:53:42.626Z,10.61
2022-11-25T08:56:09.666Z,10.64
2022-11-25T08:58:36.702Z,10.68
2022-11-25T09:01:04.551Z,10.82
2022-11-25T09:03:38.944Z,10.87
2022-11-25T09:06:06.745Z,10.86
2022-11-25T09:08:33.696Z,10.86
2022-11-25T09:11:00.731Z,11.04
2022-11-25T09:13:27.834Z,11.35
2022-11-25T09:15:54.508Z,11.44
2022-11-25T09:18:25.644Z,11.55
2022-11-25T09:20:53.994Z,11.64
2022-11-25T09:23:20.863Z,11.87
2022-11-25T09:25:55.480Z,11.84
2022-11-25T09:28:22.967Z,11.88
2022-11-25T09:30:49.779Z,11.89
2022-11-25T09:33:17.223Z,11.88
2022-11-25T09:35:44.124Z,12.03
2022-11-25T09:38:10.973Z,12.29
2022-11-25T09:40:48.173Z,12.58
2022-11-25T09:44:02.650Z,12.64
2022-11-25T09:46:51.386Z,12.46
2022-11-25T09:49:30.384Z,12.24
2022-11-25T09:52:18.703Z,12.20
2022-11-25T09:55:15.268Z,12.12
2022-11-25T09:57:57.881Z,11.94
2022-11-25T10:00:37.277Z,11.84
2022-11-25T10:03:18.493Z,11.75
2022-11-25T10:05:47.916Z,11.84
2022-11-25T10:08:29.245Z,11.82
2022-11-25T10:11:07.686Z,11.71
2022-11-25T10:13:48.509Z,11.62
2022-11-25T10:16:38.476Z,11.58
2022-11-25T10:19:35.621Z,11.73
2022-11-25T10:22:23.287Z,11.78
2022-11-25T10:24:52.981Z,11.86
2022-11-25T10:27:27.550Z,11.83
2022-11-25T10:30:02.871Z,11.78
2022-11-25T10:32:36.772Z,11.80
2022-11-25T10:35:12.921Z,11.80
2022-11-25T10:37:44.260Z,11.80
2022-11-25T10:40:18.179Z,11.73
2022-11-25T10:42:44.854Z,11.67
2022-11-25T10:45:11.900Z,11.58
2022-11-25T10:48:03.487Z,11.51
2022-11-25T10:50:29.977Z,11.51
2022-11-25T10:53:02.249Z,11.45
2022-11-25T10:55:31.723Z,11.41
2022-11-25T10:57:59.071Z,11.38
2022-11-25T11:00:25.650Z,11.32
2022-11-25T11:02:52.486Z,11.30
2022-11-25T11:05:31.309Z,11.25
2022-11-25T11:08:38.472Z,11.24
2022-11-25T11:11:20.000Z,11.29
2022-11-25T11:13:47.994Z,11.30
2022-11-25T11:16:32.071Z,11.26
2022-11-25T11:18:59.047Z,11.29
2022-11-25T11:21:36.628Z,11.30
2022-11-25T11:24:22.225Z,11.32
2022-11-25T11:27:02.589Z,11.33
2022-11-25T11:29:29.158Z,11.36
2022-11-25T11:32:01.488Z,11.42
2022-11-25T11:34:53.263Z,11.38
2022-11-25T11:37:39.070Z,11.35
2022-11-25T11:40:25.341Z,11.37
2022-11-25T11:43:02.947Z,11.42
2022-11-25T11:45:37.888Z,11.38
2022-11-25T11:48:10.993Z,11.35
2022-11-25T11:50:40.469Z,11.32
2022-11-25T11:53:13.720Z,11.28
2022-11-25T11:59:31.975Z,11.28
2022-11-25T12:02:16.987Z,11.29
2022-11-25T12:04:52.146Z,11.35
2022-11-25T12:07:40.246Z,11.36
2022-11-25T12:10:15.779Z,11.40
2022-11-25T12:13:09.047Z,11.43
2022-11-25T12:15:54.887Z,11.41
2022-11-25T12:18:38.910Z,11.45
2022-11-25T12:21:11.030Z,11.50
2022-11-25T12:23:40.200Z,11.46
2022-11-25T12:26:32.283Z,11.47
2022-11-25T12:29:05.248Z,11.55
2022-11-25T12:31:39.767Z,11.62
2022-11-25T12:34:06.295Z,11.59
2022-11-25T12:36:39.294Z,11.60
2022-11-25T12:39:14.893Z,11.56
2022-11-25T12:41:47.242Z,11.50
2022-11-25T12:44:41.321Z,11.41
2022-11-25T12:47:11.533Z,11.41
2022-11-25T12:49:47.049Z,11.40
2022-11-25T12:52:20.934Z,11.40
2022-11-25T12:55:10.392Z,11.41
2022-11-25T12:57:36.845Z,11.45
2022-11-25T13:00:39.998Z,11.53
2022-11-25T13:03:19.764Z,11.64
2022-11-25T13:05:52.199Z,11.71
2022-11-25T13:08:24.745Z,11.72
2022-11-25T13:11:09.014Z,11.73
2022-11-25T13:13:51.398Z,11.75
2022-11-25T13:16:20.700Z,11.73
2022-11-25T13:18:47.737Z,11.72
2022-11-25T13:21:16.114Z,11.69
2022-11-25T13:23:49.580Z,11.66
2022-11-25T13:26:36.272Z,11.61
2022-11-25T13:29:15.007Z,11.57
2022-11-25T13:32:02.124Z,11.50
2022-11-25T13:34:30.251Z,11.49
2022-11-25T13:36:59.214Z,11.50
2022-11-25T13:39:31.800Z,11.57
2022-11-25T13:42:00.308Z,11.58
2022-11-25T13:44:51.301Z,11.58
2022-11-25T13:47:38.930Z,11.69
2022-11-25T13:50:22.093Z,11.77
2022-11-25T13:53:11.019Z,11.77
2022-11-25T13:55:41.585Z,11.74
2022-11-25T13:58:11.091Z,11.72
2022-11-25T14:00:37.581Z,11.67
2022-11-25T14:03:19.174Z,11.60
2022-11-25T14:06:00.726Z,11.56
2022-11-25T14:08:35.637Z,11.58
2022-11-25T14:11:11.244Z,11.58
2022-11-25T14:14:20.961Z,11.50
2022-11-25T14:16:50.473Z,11.47
2022-11-25T14:19:51.966Z,11.44
2022-11-25T14:22:41.775Z,11.42
2022-11-25T14:25:26.851Z,11.39
2022-11-25T14:28:07.606Z,11.40
2022-11-25T14:30:36.681Z,11.44
2022-11-25T14:33:09.384Z,11.48
2022-11-25T14:36:12.294Z,11.48
2022-11-25T14:38:47.120Z,11.48
2022-11-25T14:41:18.820Z,11.43
2022-11-25T14:43:51.531Z,11.41
2022-11-25T14:46:21.548Z,11.36
2022-11-25T14:48:57.092Z,11.29
2022-11-25T14:51:26.227Z,11.27
2022-11-25T14:53:53.405Z,11.26
2022-11-25T14:56:38.928Z,11.25
2022-11-25T14:59:08.736Z,11.28
2022-11-25T15:01:37.407Z,11.29
2022-11-25T15:04:15.760Z,11.33
2022-11-25T15:06:48.468Z,11.34
2022-11-25T15:09:29.791Z,11.30
2022-11-25T15:12:06.782Z,11.31
2022-11-25T15:14:37.333Z,11.34
2022-11-25T15:17:08.861Z,11.35
2022-11-25T15:19:37.134Z,11.33
2022-11-25T15:22:24.013Z,11.33
2022-11-25T15:24:55.613Z,11.32
2022-11-25T15:27:26.964Z,11.21
2022-11-25T15:29:55.195Z,11.25
2022-11-25T15:32:27.398Z,11.20
2022-11-25T15:34:57.147Z,11.20
2022-11-25T15:37:24.158Z,11.18
2022-11-25T15:40:11.134Z,11.19
2022-11-25T15:42:37.715Z,11.20
2022-11-25T15:45:20.167Z,11.20
2022-11-25T15:47:46.962Z,11.18
2022-11-25T15:50:27.036Z,11.12
2022-11-25T15:52:57.100Z,11.11
2022-11-25T15:55:32.962Z,11.05
2022-11-25T15:58:21.545Z,10.97
2022-11-25T16:01:03.333Z,10.91
2022-11-25T16:03:33.640Z,10.88
2022-11-25T16:06:01.607Z,10.85
2022-11-25T16:08:37.089Z,10.83
2022-11-25T16:11:19.391Z,10.79
2022-11-25T16:13:53.516Z,10.79
2022-11-25T16:16:22.015Z,10.76
2022-11-25T16:19:04.872Z,10.75
2022-11-25T16:21:38.040Z,10.74
2022-11-25T16:24:13.523Z,10.77
2022-11-25T16:26:49.432Z,10.75
2022-11-25T16:29:18.516Z,10.75
2022-11-25T16:31:45.056Z,10.75
2022-11-25T16:34:17.484Z,10.78
2022-11-25T16:36:44.290Z,10.77
2022-11-25T16:39:10.877Z,10.79
2022-11-25T16:41:38.027Z,10.76
2022-11-25T16:44:11.499Z,10.73
2022-11-25T16:46:38.027Z,10.66
2022-11-25T16:49:13.097Z,10.61
2022-11-25T16:51:39.828Z,10.53
2022-11-25T16:54:06.337Z,10.41
2022-11-25T16:56:35.043Z,10.28
2022-11-25T16:59:03.121Z,10.15
2022-11-25T17:01:30.833Z,10.06
2022-11-25T17:03:57.727Z,9.99
2022-11-25T17:06:26.906Z,9.96
2022-11-25T17:08:53.460Z,9.92
2022-11-25T17:11:29.905Z,9.87
2022-11-25T17:14:00.332Z,9.86
2022-11-25T17:16:28.667Z,9.84
2022-11-25T17:18:58.338Z,9.82
2022-11-25T17:21:27.945Z,9.80
2022-11-25T17:24:14.606Z,9.75
2022-11-25T17:26:43.284Z,9.75
2022-11-25T17:29:24.612Z,9.72
2022-11-25T17:31:55.131Z,9.74
2022-11-25T17:34:24.788Z,9.79
2022-11-25T17:36:52.233Z,9.81
2022-11-25T17:39:18.793Z,9.84
2022-11-25T17:41:49.101Z,9.86
2022-11-25T17:44:20.154Z,9.87
2022-11-25T17:46:46.818Z,9.92
2022-11-25T17:49:15.262Z,9.94
2022-11-25T17:51:43.173Z,9.97
2022-11-25T17:54:10.204Z,9.99
2022-11-25T17:56:38.888Z,10.04
2022-11-25T17:59:11.376Z,10.06
2022-11-25T18:01:37.952Z,10.08
2022-11-25T18:04:24.727Z,10.09
2022-11-25T18:06:51.807Z,10.13
2022-11-25T18:09:19.261Z,10.12
2022-11-25T18:11:52.134Z,10.08
2022-11-25T18:14:30.286Z,10.06
2022-11-25T18:17:00.672Z,10.04
2022-11-25T18:19:27.342Z,10.05
2022-11-25T18:21:59.967Z,10.02
2022-11-25T18:24:26.463Z,10.03
2022-11-25T18:26:53.724Z,10.02
2022-11-25T18:29:24.525Z,10.02
2022-11-25T18:31:53.675Z,10.00
2022-11-25T18:34:20.217Z,10.00
2022-11-25T18:36:46.789Z,9.96
2022-11-25T18:39:13.970Z,9.93
2022-11-25T18:41:41.836Z,9.92
2022-11-25T18:44:25.818Z,9.89
2022-11-25T18:46:53.551Z,9.89
2022-11-25T18:49:20.567Z,9.93
2022-11-25T18:51:47.591Z,9.95
2022-11-25T18:54:14.256Z,9.98
2022-11-25T18:56:41.637Z,10.01
2022-11-25T18:59:14.205Z,10.00
2022-11-25T19:01:44.201Z,9.99
2022-11-25T19:04:16.770Z,9.96
2022-11-25T19:06:44.097Z,9.96
2022-11-25T19:09:10.816Z,9.93
2022-11-25T19:11:41.026Z,9.92
2022-11-25T19:14:14.771Z,9.86
2022-11-25T19:16:42.146Z,9.83
2022-11-25T19:19:14.273Z,9.80
2022-11-25T19:21:40.685Z,9.71
2022-11-25T19:24:13.701Z,9.77
2022-11-25T19:26:47.873Z,9.76
2022-11-25T19:29:25.892Z,9.73
2022-11-25T19:31:54.189Z,9.74
2022-11-25T19:34:33.749Z,9.71
2022-11-25T19:37:00.329Z,9.75
2022-11-25T19:39:27.471Z,9.77
2022-11-25T19:41:54.673Z,9.76
2022-11-25T19:44:21.195Z,9.75
2022-11-25T19:47:14.387Z,9.74
2022-11-25T19:49:36.859Z,9.68
2022-11-25T19:52:03.457Z,9.62
2022-11-25T19:54:30.064Z,9.59
2022-11-25T19:56:56.602Z,9.55
2022-11-25T19:59:23.113Z,9.53
2022-11-25T20:01:49.787Z,9.53
2022-11-25T20:04:21.231Z,9.54
2022-11-25T20:06:49.378Z,9.54
2022-11-25T20:09:15.975Z,9.53
2022-11-25T20:11:43.028Z,9.51
2022-11-25T20:14:09.574Z,9.50
2022-11-25T20:16:39.740Z,9.50
2022-11-25T20:19:07.720Z,9.47
2022-11-25T20:21:40.228Z,9.43
2022-11-25T20:24:14.422Z,9.36
2022-11-25T20:26:45.889Z,9.31
2022-11-25T20:29:24.698Z,9.22
2022-11-25T20:31:56.085Z,9.19
2022-11-25T20:34:22.760Z,9.25
2022-11-25T20:36:49.309Z,9.31
2022-11-25T20:39:19.382Z,9.41
2022-11-25T20:41:51.730Z,9.48
2022-11-25T20:44:19.993Z,9.49
2022-11-25T20:46:46.706Z,9.52
2022-11-25T20:49:22.718Z,9.52
2022-11-25T20:51:49.670Z,9.56
2022-11-25T20:54:17.688Z,9.58
2022-11-25T20:56:44.249Z,9.59
2022-11-25T20:59:23.159Z,9.62
2022-11-25T21:01:51.140Z,9.68
2022-11-25T21:04:18.440Z,9.69
2022-11-25T21:06:45.082Z,9.66
2022-11-25T21:09:20.954Z,9.65
2022-11-25T21:11:48.144Z,9.64
2022-11-25T21:14:16.893Z,9.62
2022-11-25T21:16:43.918Z,9.60
2022-11-25T21:19:10.580Z,9.63
2022-11-25T21:21:43.923Z,9.65
2022-11-25T21:24:20.675Z,9.66
2022-11-25T21:26:48.367Z,9.67
2022-11-25T21:29:17.024Z,9.65
2022-11-25T21:31:44.557Z,9.59
2022-11-25T21:34:12.412Z,9.54
2022-11-25T21:36:40.310Z,9.47
2022-11-25T21:39:23.286Z,9.40
2022-11-25T21:41:49.881Z,9.33
2022-11-25T21:44:26.734Z,9.26
2022-11-25T21:46:53.841Z,9.21
2022-11-25T21:49:21.138Z,9.18
2022-11-25T21:51:47.675Z,9.17
2022-11-25T21:54:14.193Z,9.15
2022-11-25T21:56:40.760Z,9.12
2022-11-25T21:59:08.289Z,9.13
2022-11-25T22:01:34.968Z,9.11
2022-11-25T22:04:01.528Z,9.09
2022-11-25T22:06:30.259Z,9.07
2022-11-25T22:08:57.890Z,9.06
2022-11-25T22:11:31.135Z,9.09
2022-11-25T22:13:59.086Z,9.10
2022-11-25T22:16:31.582Z,9.09
2022-11-25T22:18:59.116Z,9.09
2022-11-25T22:21:26.272Z,9.06
2022-11-25T22:23:53.016Z,9.03
2022-11-25T22:26:28.252Z,9.00
2022-11-25T22:28:55.506Z,8.97
2022-11-25T22:31:23.053Z,8.97
2022-11-25T22:33:49.723Z,8.91
2022-11-25T22:36:30.620Z,8.88
2022-11-25T22:39:15.817Z,8.86
2022-11-25T22:41:54.955Z,8.88
2022-11-25T22:44:42.942Z,8.87
2022-11-25T22:47:21.878Z,8.93
2022-11-25T22:49:49.932Z,8.95
2022-11-25T22:52:22.466Z,8.94
2022-11-25T22:54:50.575Z,8.93
2022-11-25T22:57:17.824Z,8.91
2022-11-25T22:59:44.572Z,8.90
2022-11-25T23:02:23.797Z,8.85
2022-11-25T23:04:55.883Z,8.83
2022-11-25T23:07:23.023Z,8.75
2022-11-25T23:09:50.038Z,8.78
2022-11-25T23:12:17.545Z,8.77
2022-11-25T23:14:44.575Z,8.74
2022-11-25T23:17:21.028Z,8.70
2022-11-25T23:19:48.201Z,8.68
2022-11-25T23:22:14.741Z,8.69
2022-11-25T23:24:44.395Z,8.67
2022-11-25T23:27:11.086Z,8.65
2022-11-25T23:29:37.771Z,8.67
2022-11-25T23:32:07.864Z,8.66
2022-11-25T23:34:34.846Z,8.61
2022-11-25T23:37:01.478Z,8.62
2022-11-25T23:39:28.051Z,8.62
2022-11-25T23:41:54.812Z,8.62
2022-11-25T23:44:27.271Z,8.61
2022-11-25T23:46:57.916Z,8.63
2022-11-25T23:49:33.694Z,8.63
2022-11-25T23:52:07.591Z,8.67
2022-11-25T23:54:41.444Z,8.67
2022-11-25T23:57:32.642Z,8.64
2022-11-25T23:59:59.232Z,8.67
